createdAt,value
2023-05-20T00:01:08.102Z,8.71
2023-05-20T00:03:35.022Z,8.83
2023-05-20T00:06:02.192Z,8.91
2023-05-20T00:08:28.974Z,9.02
2023-05-20T00:10:55.793Z,9.09
2023-05-20T00:13:24.299Z,9.16
2023-05-20T00:15:52.241Z,9.19
2023-05-20T00:18:19.239Z,9.26
2023-05-20T00:20:46.143Z,9.26
2023-05-20T00:23:13.498Z,9.27
2023-05-20T00:25:40.440Z,9.30
2023-05-20T00:28:07.201Z,9.32
2023-05-20T00:30:34.404Z,9.32
2023-05-20T00:33:01.501Z,9.31
2023-05-20T00:35:28.438Z,9.27
2023-05-20T00:37:55.286Z,9.23
2023-05-20T00:40:23.637Z,9.22
2023-05-20T00:42:51.100Z,9.22
2023-05-20T00:45:17.959Z,9.19
2023-05-20T00:47:44.855Z,9.20
2023-05-20T00:50:11.937Z,9.21
2023-05-20T00:52:39.648Z,9.24
2023-05-20T00:55:07.101Z,9.27
2023-05-20T00:57:33.864Z,9.27
2023-05-20T01:00:00.867Z,9.30
2023-05-20T01:02:27.775Z,9.29
2023-05-20T01:04:56.773Z,9.32
2023-05-20T01:07:23.823Z,9.33
2023-05-20T01:09:52.582Z,9.33
2023-05-20T01:12:38.463Z,9.32
2023-05-20T01:15:06.021Z,9.34
2023-05-20T01:17:38.116Z,9.37
2023-05-20T01:20:10.017Z,9.42
2023-05-20T01:22:37.975Z,9.45
2023-05-20T01:25:05.468Z,9.47
2023-05-20T01:27:32.376Z,9.51
2023-05-20T01:29:59.786Z,9.53
2023-05-20T01:32:28.256Z,9.56
2023-05-20T01:34:55.146Z,9.57
2023-05-20T01:37:22.021Z,9.59
2023-05-20T01:39:49.969Z,9.62
2023-05-20T01:42:16.862Z,9.63
2023-05-20T01:44:43.797Z,9.64
2023-05-20T01:47:13.410Z,9.65
2023-05-20T01:49:41.813Z,9.65
2023-05-20T01:52:08.674Z,9.68
2023-05-20T01:54:36.029Z,9.70
2023-05-20T01:57:03.214Z,9.69
2023-05-20T01:59:30.440Z,9.67
2023-05-20T02:01:57.398Z,9.62
2023-05-20T02:04:24.983Z,9.61
2023-05-20T02:06:51.805Z,9.58
2023-05-20T02:09:18.750Z,9.59
2023-05-20T02:11:45.663Z,9.59
2023-05-20T02:14:12.628Z,9.58
2023-05-20T02:16:39.445Z,9.61
2023-05-20T02:19:06.784Z,9.63
2023-05-20T02:21:35.393Z,9.58
2023-05-20T02:24:02.201Z,9.60
2023-05-20T02:26:29.041Z,9.61
2023-05-20T02:28:55.829Z,9.55
2023-05-20T02:31:23.023Z,9.53
2023-05-20T02:33:49.827Z,9.52
2023-05-20T02:36:17.392Z,9.49
2023-05-20T02:38:44.840Z,9.50
2023-05-20T02:41:11.726Z,9.49
2023-05-20T02:43:40.770Z,9.57
2023-05-20T02:46:07.615Z,9.52
2023-05-20T02:48:34.530Z,9.48
2023-05-20T02:51:01.318Z,9.48
2023-05-20T02:53:28.056Z,9.44
2023-05-20T02:55:54.966Z,9.46
2023-05-20T02:58:26.425Z,9.50
2023-05-20T03:00:53.773Z,9.53
2023-05-20T03:03:20.728Z,9.57
2023-05-20T03:05:47.453Z,9.50
2023-05-20T03:08:15.119Z,9.47
2023-05-20T03:10:42.162Z,9.55
2023-05-20T03:13:10.110Z,9.59
2023-05-20T03:15:38.152Z,9.55
2023-05-20T03:18:05.684Z,9.64
2023-05-20T03:20:38.608Z,9.71
2023-05-20T03:23:07.570Z,9.85
2023-05-20T03:25:36.796Z,9.94
2023-05-20T03:28:04.010Z,9.83
2023-05-20T03:30:31.438Z,9.83
2023-05-20T03:32:58.715Z,9.89
2023-05-20T03:35:26.195Z,9.93
2023-05-20T03:37:53.548Z,10.02
2023-05-20T03:40:23.908Z,10.15
2023-05-20T03:42:52.253Z,10.20
2023-05-20T03:45:20.936Z,10.25
2023-05-20T03:48:05.788Z,10.33
2023-05-20T03:50:34.499Z,10.40
2023-05-20T03:53:01.811Z,10.30
2023-05-20T03:55:35.096Z,10.21
2023-05-20T03:58:03.077Z,10.07
2023-05-20T04:00:32.021Z,9.98
2023-05-20T04:02:59.262Z,9.89
2023-05-20T04:05:27.098Z,9.86
2023-05-20T04:07:55.180Z,9.82
2023-05-20T04:10:23.797Z,9.82
2023-05-20T04:12:52.612Z,9.74
2023-05-20T04:15:20.520Z,9.74
2023-05-20T04:17:54.968Z,9.81
2023-05-20T04:20:22.083Z,9.97
2023-05-20T04:22:50.827Z,10.12
2023-05-20T04:25:17.908Z,10.37
2023-05-20T04:27:44.751Z,10.39
2023-05-20T04:30:12.009Z,10.43
2023-05-20T04:32:41.850Z,10.38
2023-05-20T04:35:12.095Z,10.59
2023-05-20T04:37:42.659Z,10.82
2023-05-20T04:40:13.134Z,10.89
2023-05-20T04:42:40.111Z,10.93
2023-05-20T04:45:08.966Z,10.90
2023-05-20T04:47:38.978Z,10.89
2023-05-20T04:50:13.782Z,10.93
2023-05-20T04:52:46.136Z,10.99
2023-05-20T04:55:13.429Z,10.97
2023-05-20T04:57:42.952Z,10.98
2023-05-20T05:00:10.921Z,11.05
2023-05-20T05:02:37.988Z,11.18
2023-05-20T05:05:05.249Z,11.22
2023-05-20T05:07:32.722Z,11.18
2023-05-20T05:09:59.723Z,11.34
2023-05-20T05:12:33.168Z,11.30
2023-05-20T05:15:00.181Z,11.54
2023-05-20T05:17:29.230Z,11.68
2023-05-20T05:19:57.522Z,11.86
2023-05-20T05:22:26.263Z,12.20
2023-05-20T05:24:53.281Z,12.32
2023-05-20T05:27:21.172Z,12.23
2023-05-20T05:29:48.051Z,12.20
2023-05-20T05:32:15.021Z,12.52
2023-05-20T05:34:42.537Z,12.85
2023-05-20T05:37:09.401Z,12.87
2023-05-20T05:39:37.878Z,12.50
2023-05-20T05:42:05.680Z,12.51
2023-05-20T05:44:34.230Z,12.68
2023-05-20T05:47:02.376Z,12.89
2023-05-20T05:49:29.212Z,12.75
2023-05-20T05:51:56.358Z,12.56
2023-05-20T05:54:24.276Z,12.52
2023-05-20T05:56:52.077Z,12.76
2023-05-20T05:59:19.048Z,13.15
2023-05-20T06:01:46.426Z,13.14
2023-05-20T06:04:14.933Z,12.94
2023-05-20T06:06:41.851Z,12.92
2023-05-20T06:09:08.858Z,12.92
2023-05-20T06:11:36.557Z,13.21
2023-05-20T06:14:03.415Z,13.36
2023-05-20T06:16:30.375Z,13.41
2023-05-20T06:19:01.834Z,13.43
2023-05-20T06:21:31.811Z,13.40
2023-05-20T06:23:59.127Z,13.24
2023-05-20T06:26:26.662Z,13.18
2023-05-20T06:28:53.665Z,13.53
2023-05-20T06:31:20.744Z,13.92
2023-05-20T06:33:48.259Z,14.19
2023-05-20T06:36:15.618Z,14.17
2023-05-20T06:38:42.485Z,14.09
2023-05-20T06:41:13.871Z,14.27
2023-05-20T06:43:43.723Z,14.35
2023-05-20T06:46:51.884Z,14.69
2023-05-20T06:49:20.145Z,14.61
2023-05-20T06:51:47.272Z,14.23
2023-05-20T06:54:14.156Z,14.23
2023-05-20T06:56:42.093Z,14.07
2023-05-20T06:59:08.932Z,13.97
2023-05-20T07:01:36.473Z,14.27
2023-05-20T07:04:05.704Z,14.05
2023-05-20T07:06:33.462Z,13.91
2023-05-20T07:09:03.452Z,13.95
2023-05-20T07:11:30.750Z,14.56
2023-05-20T07:13:57.709Z,15.01
2023-05-20T07:16:28.157Z,15.32
2023-05-20T07:18:55.899Z,15.54
2023-05-20T07:21:26.040Z,15.82
2023-05-20T07:24:23.613Z,16.19
2023-05-20T07:26:50.874Z,15.70
2023-05-20T07:29:17.901Z,15.64
2023-05-20T07:31:45.059Z,15.89
2023-05-20T07:34:13.507Z,16.24
2023-05-20T07:36:41.928Z,16.31
2023-05-20T07:39:12.551Z,16.10
2023-05-20T07:41:42.326Z,15.64
2023-05-20T07:44:11.460Z,15.35
2023-05-20T07:46:44.667Z,15.42
2023-05-20T07:49:12.258Z,15.74
2023-05-20T07:51:40.003Z,16.13
2023-05-20T07:54:06.902Z,16.66
2023-05-20T07:56:33.716Z,16.94
2023-05-20T07:59:01.467Z,16.78
2023-05-20T08:01:32.392Z,16.40
2023-05-20T08:04:00.058Z,16.19
2023-05-20T08:06:29.375Z,16.17
2023-05-20T08:08:57.547Z,16.52
2023-05-20T08:11:33.225Z,16.88
2023-05-20T08:14:02.260Z,17.42
2023-05-20T08:16:33.472Z,17.70
2023-05-20T08:19:00.654Z,17.37
2023-05-20T08:21:27.662Z,17.43
2023-05-20T08:23:54.866Z,17.61
2023-05-20T08:26:22.178Z,17.75
2023-05-20T08:28:53.077Z,18.12
2023-05-20T08:31:22.517Z,17.58
2023-05-20T08:33:50.971Z,17.25
2023-05-20T08:36:21.200Z,17.42
2023-05-20T08:38:48.955Z,17.39
2023-05-20T08:41:15.994Z,17.19
2023-05-20T08:43:45.174Z,17.19
2023-05-20T08:46:12.256Z,16.53
2023-05-20T08:48:39.601Z,16.80
2023-05-20T08:51:06.591Z,17.24
2023-05-20T08:53:33.536Z,17.65
2023-05-20T08:56:03.210Z,17.82
2023-05-20T08:58:31.005Z,17.99
2023-05-20T09:00:59.090Z,17.71
2023-05-20T09:03:25.964Z,17.92
2023-05-20T09:05:53.265Z,18.08
2023-05-20T09:08:20.470Z,18.78
2023-05-20T09:10:47.281Z,18.96
2023-05-20T09:13:14.101Z,18.61
2023-05-20T09:15:41.567Z,17.46
2023-05-20T09:18:09.313Z,16.70
2023-05-20T09:20:41.228Z,16.31
2023-05-20T09:23:10.301Z,16.27
2023-05-20T09:25:37.525Z,16.28
2023-05-20T09:28:08.007Z,15.98
2023-05-20T09:30:34.890Z,15.76
2023-05-20T09:33:04.470Z,15.62
2023-05-20T09:35:35.017Z,15.68
2023-05-20T09:38:02.182Z,15.58
2023-05-20T09:40:29.426Z,15.68
2023-05-20T09:43:08.975Z,15.80
2023-05-20T09:45:37.021Z,15.80
2023-05-20T09:48:04.255Z,15.79
2023-05-20T09:50:31.568Z,15.89
2023-05-20T09:53:01.032Z,16.01
2023-05-20T09:55:27.922Z,16.05
2023-05-20T09:57:56.453Z,16.33
2023-05-20T10:00:23.449Z,16.20
2023-05-20T10:02:51.737Z,16.29
2023-05-20T10:05:22.073Z,16.49
2023-05-20T10:08:07.369Z,16.65
2023-05-20T10:10:38.002Z,16.75
2023-05-20T10:13:23.537Z,16.94
2023-05-20T10:15:56.854Z,16.83
2023-05-20T10:18:40.896Z,16.90
2023-05-20T10:21:17.398Z,17.46
2023-05-20T10:23:44.543Z,17.84
2023-05-20T10:26:11.676Z,17.74
2023-05-20T10:28:38.779Z,18.31
2023-05-20T10:31:23.421Z,18.36
2023-05-20T10:33:52.666Z,18.03
2023-05-20T10:36:24.576Z,17.79
2023-05-20T10:39:09.570Z,17.53
2023-05-20T10:41:37.549Z,17.16
2023-05-20T10:44:05.354Z,16.78
2023-05-20T10:46:48.302Z,16.85
2023-05-20T10:49:26.947Z,16.84
2023-05-20T10:51:54.445Z,16.74
2023-05-20T10:54:22.086Z,16.64
2023-05-20T10:56:52.608Z,16.46
2023-05-20T10:59:21.945Z,16.27
2023-05-20T11:01:48.966Z,16.11
2023-05-20T11:04:17.434Z,15.91
2023-05-20T11:06:51.544Z,15.75
2023-05-20T11:09:18.445Z,15.72
2023-05-20T11:11:45.251Z,15.77
2023-05-20T11:14:15.360Z,15.81
2023-05-20T11:16:42.401Z,15.78
2023-05-20T11:19:09.680Z,15.71
2023-05-20T11:21:42.904Z,15.64
2023-05-20T11:24:09.701Z,15.41
2023-05-20T11:26:37.121Z,15.35
2023-05-20T11:29:04.033Z,15.40
2023-05-20T11:31:32.084Z,15.41
2023-05-20T11:34:02.517Z,15.56
2023-05-20T11:36:30.551Z,15.62
2023-05-20T11:38:58.080Z,15.67
2023-05-20T11:41:25.742Z,15.58
2023-05-20T11:43:57.160Z,15.63
2023-05-20T11:46:24.529Z,15.55
2023-05-20T11:48:54.902Z,15.59
2023-05-20T11:51:28.048Z,15.66
2023-05-20T11:54:04.387Z,15.64
2023-05-20T11:56:35.056Z,15.74
2023-05-20T11:59:02.212Z,15.68
2023-05-20T12:01:41.279Z,15.52
2023-05-20T12:04:08.549Z,15.55
2023-05-20T12:06:37.217Z,15.66
2023-05-20T12:09:08.912Z,15.74
2023-05-20T12:11:36.251Z,15.79
2023-05-20T12:14:04.121Z,15.63
2023-05-20T12:16:31.861Z,15.72
2023-05-20T12:18:58.807Z,15.78
2023-05-20T12:21:25.677Z,15.84
2023-05-20T12:23:57.807Z,15.83
2023-05-20T12:26:26.020Z,15.80
2023-05-20T12:28:53.116Z,15.87
2023-05-20T12:31:20.186Z,15.92
2023-05-20T12:33:47.243Z,15.82
2023-05-20T12:36:14.235Z,15.99
2023-05-20T12:38:41.577Z,16.17
2023-05-20T12:41:08.375Z,16.37
2023-05-20T12:43:36.918Z,16.65
2023-05-20T12:46:04.330Z,16.77
2023-05-20T12:48:31.443Z,17.11
2023-05-20T12:50:58.364Z,17.21
2023-05-20T12:53:25.554Z,17.24
2023-05-20T12:55:52.402Z,17.18
2023-05-20T12:58:19.280Z,17.42
2023-05-20T13:01:04.460Z,17.61
2023-05-20T13:03:31.521Z,17.72
2023-05-20T13:06:03.485Z,17.94
2023-05-20T13:08:30.329Z,18.03
2023-05-20T13:10:57.085Z,17.84
2023-05-20T13:13:24.507Z,17.09
2023-05-20T13:15:51.872Z,16.56
2023-05-20T13:18:19.601Z,16.38
2023-05-20T13:20:46.551Z,16.55
2023-05-20T13:23:13.426Z,16.38
2023-05-20T13:25:40.652Z,16.42
2023-05-20T13:28:08.470Z,16.39
2023-05-20T13:30:35.797Z,16.61
2023-05-20T13:33:02.739Z,16.75
2023-05-20T13:35:29.561Z,16.58
2023-05-20T13:37:56.493Z,16.46
2023-05-20T13:40:23.323Z,16.30
2023-05-20T13:43:15.742Z,15.95
2023-05-20T13:45:42.823Z,15.59
2023-05-20T13:48:09.641Z,15.43
2023-05-20T13:50:37.068Z,15.15
2023-05-20T13:53:03.837Z,15.24
2023-05-20T13:55:31.696Z,15.47
2023-05-20T13:57:58.501Z,15.63
2023-05-20T14:00:26.045Z,15.54
2023-05-20T14:02:56.297Z,15.58
2023-05-20T14:05:23.391Z,15.36
2023-05-20T14:07:50.277Z,15.42
2023-05-20T14:10:17.210Z,15.56
2023-05-20T14:12:48.108Z,15.53
2023-05-20T14:15:15.035Z,15.65
2023-05-20T14:17:42.878Z,15.63
2023-05-20T14:20:10.126Z,15.45
2023-05-20T14:22:37.008Z,15.47
2023-05-20T14:25:04.007Z,15.68
2023-05-20T14:27:30.826Z,15.56
2023-05-20T14:29:57.796Z,15.37
2023-05-20T14:32:24.625Z,15.16
2023-05-20T14:34:51.926Z,15.05
2023-05-20T14:37:18.679Z,15.11
2023-05-20T14:39:46.071Z,15.28
2023-05-20T14:42:12.906Z,15.41
2023-05-20T14:44:39.791Z,15.29
2023-05-20T14:47:06.809Z,15.21
2023-05-20T14:49:33.827Z,15.01
2023-05-20T14:52:00.703Z,14.92
2023-05-20T14:54:27.849Z,14.83
2023-05-20T14:56:54.671Z,14.86
2023-05-20T14:59:21.527Z,14.70
2023-05-20T15:01:48.473Z,14.68
2023-05-20T15:04:15.384Z,14.70
2023-05-20T15:06:42.124Z,14.69
2023-05-20T15:09:09.130Z,14.61
2023-05-20T15:11:36.284Z,14.51
2023-05-20T15:14:03.341Z,14.39
2023-05-20T15:16:30.287Z,14.23
2023-05-20T15:18:57.338Z,14.09
2023-05-20T15:21:24.186Z,14.06
2023-05-20T15:23:51.047Z,14.02
2023-05-20T15:26:17.903Z,13.98
2023-05-20T15:28:44.842Z,13.98
2023-05-20T15:31:11.645Z,13.98
2023-05-20T15:33:38.658Z,13.92
2023-05-20T15:36:07.379Z,13.91
2023-05-20T15:38:34.477Z,13.86
2023-05-20T15:41:01.362Z,13.93
2023-05-20T15:43:28.280Z,14.03
2023-05-20T15:45:55.076Z,14.11
2023-05-20T15:48:22.675Z,15.07
2023-05-20T15:50:49.561Z,17.43
2023-05-20T15:53:16.391Z,18.80
2023-05-20T15:55:44.819Z,17.88
2023-05-20T15:58:12.040Z,16.76
2023-05-20T16:00:39.067Z,15.81
2023-05-20T16:03:06.286Z,15.33
2023-05-20T16:05:33.504Z,14.96
2023-05-20T16:08:00.726Z,14.66
2023-05-20T16:10:32.848Z,14.45
2023-05-20T16:13:00.571Z,14.29
2023-05-20T16:15:27.618Z,14.14
2023-05-20T16:17:54.780Z,14.01
2023-05-20T16:20:21.807Z,13.95
2023-05-20T16:22:49.012Z,13.92
2023-05-20T16:25:15.973Z,13.86
2023-05-20T16:27:42.923Z,13.74
2023-05-20T16:30:10.169Z,13.69
2023-05-20T16:32:37.144Z,13.65
2023-05-20T16:35:05.051Z,13.61
2023-05-20T16:37:32.517Z,13.58
2023-05-20T16:39:59.297Z,13.51
2023-05-20T16:42:26.160Z,13.51
2023-05-20T16:44:53.658Z,13.53
2023-05-20T16:47:20.754Z,13.53
2023-05-20T16:49:47.520Z,13.55
2023-05-20T16:52:14.938Z,13.57
2023-05-20T16:54:42.117Z,13.61
2023-05-20T16:57:11.479Z,13.57
2023-05-20T16:59:38.366Z,13.55
2023-05-20T17:02:05.680Z,13.58
2023-05-20T17:04:32.497Z,13.57
2023-05-20T17:07:01.838Z,13.55
2023-05-20T17:09:31.684Z,13.52
2023-05-20T17:11:58.892Z,13.51
2023-05-20T17:14:25.669Z,13.47
2023-05-20T17:16:52.632Z,13.44
2023-05-20T17:19:19.529Z,13.42
2023-05-20T17:21:46.437Z,13.37
2023-05-20T17:24:13.247Z,13.34
2023-05-20T17:26:40.136Z,13.33
2023-05-20T17:29:06.936Z,13.30
2023-05-20T17:31:34.062Z,13.22
2023-05-20T17:34:00.921Z,13.11
2023-05-20T17:36:27.834Z,13.01
2023-05-20T17:38:54.744Z,12.95
2023-05-20T17:41:22.097Z,12.91
2023-05-20T17:43:48.895Z,12.86
2023-05-20T17:46:15.750Z,12.81
2023-05-20T17:48:42.762Z,12.79
2023-05-20T17:51:09.662Z,12.79
2023-05-20T17:53:36.856Z,12.68
2023-05-20T17:56:03.992Z,12.65
2023-05-20T17:58:31.614Z,12.57
2023-05-20T18:00:58.749Z,12.53
2023-05-20T18:03:26.103Z,12.47
2023-05-20T18:05:56.138Z,12.42
2023-05-20T18:08:25.423Z,12.35
2023-05-20T18:10:52.595Z,12.28
2023-05-20T18:13:19.409Z,12.27
2023-05-20T18:15:47.161Z,12.22
2023-05-20T18:18:14.032Z,12.18
2023-05-20T18:20:41.196Z,12.13
2023-05-20T18:23:08.085Z,12.08
2023-05-20T18:25:34.877Z,12.04
2023-05-20T18:28:01.836Z,11.96
2023-05-20T18:30:28.872Z,11.85
2023-05-20T18:32:57.147Z,11.80
2023-05-20T18:35:24.028Z,11.79
2023-05-20T18:37:51.753Z,11.76
2023-05-20T18:40:20.702Z,11.68
2023-05-20T18:42:47.591Z,11.62
2023-05-20T18:45:14.587Z,11.52
2023-05-20T18:47:41.862Z,11.39
2023-05-20T18:50:09.273Z,11.29
2023-05-20T18:52:36.196Z,11.23
2023-05-20T18:55:03.006Z,11.20
2023-05-20T18:57:31.804Z,11.21
2023-05-20T18:59:59.135Z,11.25
2023-05-20T19:02:26.006Z,11.25
2023-05-20T19:04:52.857Z,11.26
2023-05-20T19:07:20.034Z,11.28
2023-05-20T19:09:46.928Z,11.27
2023-05-20T19:12:13.699Z,11.24
2023-05-20T19:14:41.122Z,11.21
2023-05-20T19:17:08.092Z,11.18
2023-05-20T19:19:35.065Z,11.13
2023-05-20T19:22:02.167Z,11.10
2023-05-20T19:24:32.063Z,11.04
2023-05-20T19:26:59.017Z,11.04
2023-05-20T19:29:25.946Z,11.04
2023-05-20T19:31:52.909Z,11.05
2023-05-20T19:34:20.890Z,11.05
2023-05-20T19:36:47.994Z,11.05
2023-05-20T19:39:15.689Z,11.05
2023-05-20T19:41:42.795Z,11.00
2023-05-20T19:44:09.717Z,10.95
2023-05-20T19:46:36.918Z,10.94
2023-05-20T19:49:03.946Z,10.92
2023-05-20T19:51:32.417Z,10.88
2023-05-20T19:53:59.838Z,10.88
2023-05-20T19:56:26.804Z,10.80
2023-05-20T19:58:53.714Z,10.69
2023-05-20T20:01:20.689Z,10.69
2023-05-20T20:03:47.663Z,10.63
2023-05-20T20:06:17.731Z,10.58
2023-05-20T20:08:45.956Z,10.55
2023-05-20T20:11:13.015Z,10.51
2023-05-20T20:13:40.225Z,10.48
2023-05-20T20:16:07.718Z,10.48
2023-05-20T20:18:34.650Z,10.41
2023-05-20T20:21:05.670Z,10.41
2023-05-20T20:23:32.983Z,10.38
2023-05-20T20:25:59.867Z,10.40
2023-05-20T20:28:26.703Z,10.41
2023-05-20T20:30:53.724Z,10.40
2023-05-20T20:33:20.543Z,10.37
2023-05-20T20:35:48.340Z,10.33
2023-05-20T20:38:15.260Z,10.27
2023-05-20T20:40:42.680Z,10.30
2023-05-20T20:43:11.211Z,10.32
2023-05-20T20:45:38.256Z,10.29
2023-05-20T20:48:08.050Z,10.30
2023-05-20T20:50:36.711Z,10.34
2023-05-20T20:53:03.582Z,10.34
2023-05-20T20:55:34.651Z,10.31
2023-05-20T20:58:03.588Z,10.28
2023-05-20T21:00:31.920Z,10.24
2023-05-20T21:02:58.752Z,10.22
2023-05-20T21:05:26.788Z,10.16
2023-05-20T21:07:58.493Z,10.06
2023-05-20T21:10:31.988Z,9.92
2023-05-20T21:12:59.229Z,9.86
2023-05-20T21:15:26.366Z,9.79
2023-05-20T21:17:56.408Z,9.77
2023-05-20T21:20:25.847Z,9.79
2023-05-20T21:22:52.849Z,9.81
2023-05-20T21:25:19.792Z,9.83
2023-05-20T21:27:46.871Z,9.79
2023-05-20T21:30:15.961Z,9.74
2023-05-20T21:32:42.927Z,9.70
2023-05-20T21:35:09.910Z,9.65
2023-05-20T21:37:36.789Z,9.64
2023-05-20T21:40:03.818Z,9.63
2023-05-20T21:42:30.945Z,9.60
2023-05-20T21:44:57.707Z,9.59
2023-05-20T21:47:24.484Z,9.50
2023-05-20T21:49:51.960Z,9.39
2023-05-20T21:52:18.751Z,9.32
2023-05-20T21:54:45.731Z,9.25
2023-05-20T21:57:12.561Z,9.20
2023-05-20T21:59:39.572Z,9.14
2023-05-20T22:02:06.516Z,9.09
2023-05-20T22:04:34.082Z,9.08
2023-05-20T22:07:00.932Z,9.06
2023-05-20T22:09:28.751Z,9.06
2023-05-20T22:11:56.312Z,9.05
2023-05-20T22:14:23.812Z,9.09
2023-05-20T22:16:50.815Z,9.05
2023-05-20T22:19:17.816Z,9.02
2023-05-20T22:24:14.812Z,9.06
2023-05-20T22:26:41.823Z,9.01
2023-05-20T22:29:08.746Z,9.03
2023-05-20T22:31:35.839Z,9.05
2023-05-20T22:34:04.596Z,9.08
2023-05-20T22:36:34.241Z,9.10
2023-05-20T22:39:04.955Z,9.09
2023-05-20T22:41:32.195Z,9.09
2023-05-20T22:43:59.037Z,9.03
2023-05-20T22:46:26.245Z,9.02
2023-05-20T22:48:53.216Z,9.05
2023-05-20T22:51:24.738Z,9.10
2023-05-20T22:53:52.129Z,9.09
2023-05-20T22:56:19.156Z,9.07
2023-05-20T22:58:46.027Z,9.05
2023-05-20T23:01:13.420Z,9.09
2023-05-20T23:03:40.218Z,9.09
2023-05-20T23:06:06.996Z,9.14
2023-05-20T23:08:33.834Z,9.14
2023-05-20T23:11:00.779Z,9.18
2023-05-20T23:13:28.116Z,9.23
2023-05-20T23:15:54.995Z,9.24
2023-05-20T23:18:22.189Z,9.23
2023-05-20T23:20:49.151Z,9.26
2023-05-20T23:23:16.562Z,9.28
2023-05-20T23:25:45.830Z,9.25
2023-05-20T23:28:12.833Z,9.22
2023-05-20T23:30:44.903Z,9.20
2023-05-20T23:33:13.104Z,9.20
2023-05-20T23:35:39.941Z,9.26
2023-05-20T23:38:07.799Z,9.27
2023-05-20T23:40:34.647Z,9.28
2023-05-20T23:43:01.646Z,9.28
2023-05-20T23:45:28.917Z,9.29
2023-05-20T23:47:55.780Z,9.33
2023-05-20T23:50:22.708Z,9.32
2023-05-20T23:52:49.616Z,9.34
2023-05-20T23:55:18.416Z,9.33
2023-05-20T23:57:45.170Z,9.37
